PANC/ANC METAR and TAF weather

Enter ICAO airport designator
Station Type Date Time Source
PANC METAR 2022/01/29 00:53 UTC NOAA

PANC 290053Z 03009KT 10SM OVC075 M04/M10 A2932 RMK AO2 SLP932 VIRGA W-NW T10441100


Station Type Date Time Source
PANC Decoded METAR 2022/01/29 00:53 UTC NOAA

TED STEVENS ANCHORAGE INTERNATIONAL , AK, United States (PANC) 61-10N 150-02W 48M
Jan 28, 2022 - 07:53 PM EST / 2022.01.29 0053 UTC
Wind: from the NNE (030 degrees) at 10 MPH (9 KT):0
Visibility: 10 mile(s):0
Sky conditions: overcast
Temperature: 24.1 F (-4.4 C)
Windchill: 14 F (-10 C):1
Dew Point: 14.0 F (-10.0 C)
Relative Humidity: 64%
Pressure (altimeter): 29.32 in. Hg (992 hPa)
ob: PANC 290053Z 03009KT 10SM OVC075 M04/M10 A2932 RMK AO2 SLP932 VIRGA W-NW T10441100
cycle: 1

Station Type Date Time Source
PANC TAF 2022/01/28 18:33 UTC NOAA

TAF PANC 281730Z 2818/2924 01010KT P6SM FEW010 BKN050 OVC070
FM290600 01006KT P6SM BKN100

Example: see airport list